»·PEaware :: DAL571 KSAN-KLAX

DAL571 :: KSAN-KLAX

FLIGHT INFORMATION

Flight Status: Arrived
Operator:
Delta Air Lines
More flights by this operator :: More flights under this callsign
Pilot: John H. (20300)
Aircraft: BOEING 737-800
(B738)
More flights by this aircraft type
Origin: KSAN San Diego Intl-Lindbergh
United States
Destination: KLAX Los Angeles Intl
United States
More flights between these airports :: More routes between these airports
Route: +CWARD2 SLI
File this flight plan on PilotEdge
Remarks:
Altitude:
(Current/Filed)
10,000ft
Speed:
(Current/Filed)
115kts
Departed: 26-Sep-18 07:28 AM
Arrived: 26-Sep-18 07:59 AM
Distance/Time
Traveled:
95nm/0:31
Distance/Time
To Go:
Arrived

Flight Plot

Page will automatically refresh every two minutes.

Flight plan parsing failed; only flown route is shown


Map Options




Map Legend


Flown Route
Filed Route
Departure Airport
Arrival Airport
Navaid (VOR, NDB)
Fix

Horizontal Profiles

Position Reports

Time Latitude Longitude Heading Altitude Ground
Speed
26-Sep-18 07:15 32.733218 -117.196885 134 18ft 0kts
26-Sep-18 07:16 32.733218 -117.196885 134 18ft 0kts
26-Sep-18 07:17 32.733218 -117.196885 134 18ft 0kts
26-Sep-18 07:18 32.733218 -117.196885 134 18ft 0kts
26-Sep-18 07:19 32.733218 -117.196885 134 18ft 0kts
26-Sep-18 07:20 32.733478 -117.196892 183 17ft 2kts
26-Sep-18 07:21 32.733952 -117.196909 109 17ft 1kts
26-Sep-18 07:22 32.733966 -117.196978 106 17ft 0kts
26-Sep-18 07:23 32.733992 -117.196832 65 17ft 2kts
26-Sep-18 07:24 32.732539 -117.189852 105 19ft 32kts
26-Sep-18 07:25 32.730098 -117.179682 105 18ft 31kts
26-Sep-18 07:26 32.729551 -117.176540 68 23ft 0kts
26-Sep-18 07:27 32.729551 -117.176540 68 23ft 0kts
26-Sep-18 07:28 32.729551 -117.176539 67 23ft 0kts
26-Sep-18 07:29 32.730332 -117.176325 285 24ft 19kts
26-Sep-18 07:30 32.739116 -117.215825 291 1774ft 162kts
26-Sep-18 07:31 32.764703 -117.260742 307 4565ft 168kts
26-Sep-18 07:32 32.792546 -117.306895 307 6774ft 184kts
26-Sep-18 07:33 32.827405 -117.361881 309 8456ft 244kts
26-Sep-18 07:34 32.862763 -117.416591 309 9766ft 290kts
26-Sep-18 07:35 32.912640 -117.494091 309 10030ft 293kts
26-Sep-18 07:36 32.962269 -117.571386 309 10035ft 294kts
26-Sep-18 07:37 33.011971 -117.648962 309 10037ft 295kts
26-Sep-18 07:38 33.061603 -117.726550 309 10035ft 295kts
26-Sep-18 07:39 33.115792 -117.784007 321 10000ft 294kts
26-Sep-18 07:40 33.178180 -117.847065 321 9999ft 294kts
26-Sep-18 07:41 33.254014 -117.878789 350 9028ft 301kts
26-Sep-18 07:42 33.335452 -117.898300 349 7071ft 295kts
26-Sep-18 07:43 33.410092 -117.919046 344 7002ft 271kts
26-Sep-18 07:44 33.482050 -117.945106 344 7000ft 271kts
26-Sep-18 07:45 33.554371 -117.971408 344 6999ft 272kts
26-Sep-18 07:46 33.627004 -117.997867 344 7006ft 280kts
26-Sep-18 07:47 33.712843 -118.029127 343 7005ft 356kts
26-Sep-18 07:48 33.807443 -118.067637 333 7004ft 363kts
26-Sep-18 07:49 33.902755 -118.092251 11 7003ft 360kts
26-Sep-18 07:50 33.987541 -118.052093 51 5161ft 309kts
26-Sep-18 07:51 33.986050 -117.969555 138 4987ft 237kts
26-Sep-18 07:52 33.932211 -117.972719 234 4990ft 199kts
26-Sep-18 07:53 33.943983 -118.030400 311 4968ft 193kts
26-Sep-18 07:54 33.957858 -118.091792 275 4108ft 196kts
26-Sep-18 07:55 33.961714 -118.153626 271 3483ft 170kts
26-Sep-18 07:56 33.956202 -118.209874 263 3099ft 169kts
26-Sep-18 07:57 33.950634 -118.262251 263 2007ft 146kts
26-Sep-18 07:58 33.945680 -118.310095 263 1489ft 143kts
26-Sep-18 07:59 33.939601 -118.356680 263 436ft 139kts
26-Sep-18 08:00 33.935623 -118.400154 264 116ft 71kts
26-Sep-18 08:01 33.935774 -118.407556 314 126ft 0kts
26-Sep-18 08:02 33.938278 -118.409188 354 126ft 21kts
26-Sep-18 08:03 33.938617 -118.409229 354 126ft 0kts
26-Sep-18 08:04 33.938661 -118.409235 353 126ft 1kts
26-Sep-18 08:05 33.938963 -118.408140 28 126ft 16kts

Navigation Log

Ident Type
Flight plan parsing failed, navigation log unavailable